Main page
METAR-TAF:

METAR-TAF

Airports :

Humberside Airport

Humberside, England

latitude: 53-35N, longitude: 000-21W, elevation: 31 m

Current weather observation

The report was made 18 minutes ago, at 23:20 UTC
Wind 4 kt from the West/Southwest
Temperature 12°C
Humidity 76%
Pressure 1015 hPa
Visibility 10 km or more

METAR: EGNJ 252320Z AUTO 24004KT 9999 NCD 12/08 Q1015

Time: 00:38 (23:38 UTC)

Forecast

The report was made 44 minutes ago, at 22:54 UTC
Forecast valid from 26 at 00 UTC to 26 at 09 UTC
Wind 8 kt from the West/Southwest
Visibility 10 km or more
Scattered clouds at a height of 3500 ft

TAF: EGNJ 252254Z 2600/2609 24008KT 9999 SCT035

Weather observations and forecasts of more than 4000 airports (METAR and TAF reports).

The available stations are represented by yellow and red dots on the map.

Hover mouse over dot to see the name of the station.

Then click to see weather observations and forecasts.

To change the map : click on the green buttons with a black cross to zoom in, on the green button with a dash to zoom out, or on the green arrows for adjacent maps.


METAR-TAF: